createdAt,value
2023-05-11T00:00:45.291Z,13.23
2023-05-11T00:03:48.080Z,13.23
2023-05-11T00:06:50.843Z,13.20
2023-05-11T00:09:53.532Z,13.21
2023-05-11T00:12:56.188Z,13.21
2023-05-11T00:16:00.246Z,13.20
2023-05-11T00:19:03.067Z,13.21
2023-05-11T00:22:05.870Z,13.20
2023-05-11T00:25:09.046Z,13.17
2023-05-11T00:28:11.691Z,13.16
2023-05-11T00:31:15.783Z,13.16
2023-05-11T00:34:18.932Z,13.12
2023-05-11T00:37:21.563Z,13.13
2023-05-11T00:40:24.150Z,13.14
2023-05-11T00:43:27.520Z,13.15
2023-05-11T00:46:31.722Z,13.18
2023-05-11T00:49:34.747Z,13.23
2023-05-11T00:52:37.650Z,13.19
2023-05-11T00:55:40.398Z,13.11
2023-05-11T00:58:43.190Z,12.95
2023-05-11T01:01:47.262Z,12.96
2023-05-11T01:04:49.992Z,13.00
2023-05-11T01:08:00.792Z,13.00
2023-05-11T01:11:09.176Z,13.00
2023-05-11T01:14:17.680Z,13.06
2023-05-11T01:17:27.412Z,13.04
2023-05-11T01:20:31.310Z,12.99
2023-05-11T01:23:51.711Z,12.99
2023-05-11T01:27:07.978Z,12.98
2023-05-11T01:30:30.358Z,13.05
2023-05-11T01:33:35.836Z,13.04
2023-05-11T01:36:43.881Z,13.08
2023-05-11T01:39:52.445Z,13.10
2023-05-11T01:43:02.179Z,13.07
2023-05-11T01:46:08.406Z,13.09
2023-05-11T01:49:13.697Z,13.10
2023-05-11T01:52:18.414Z,13.05
2023-05-11T01:55:23.239Z,13.05
2023-05-11T01:58:28.363Z,13.05
2023-05-11T02:01:35.706Z,13.08
2023-05-11T02:04:39.619Z,13.04
2023-05-11T02:07:44.873Z,13.05
2023-05-11T02:10:49.149Z,13.02
2023-05-11T02:13:52.944Z,12.99
2023-05-11T02:16:58.274Z,12.96
2023-05-11T02:20:02.415Z,12.96
2023-05-11T02:23:06.011Z,12.92
2023-05-11T02:26:09.507Z,12.92
2023-05-11T02:29:12.226Z,12.93
2023-05-11T02:32:19.134Z,12.99
2023-05-11T02:35:25.036Z,12.96
2023-05-11T02:38:33.235Z,12.97
2023-05-11T02:41:40.372Z,13.00
2023-05-11T02:44:51.419Z,13.01
2023-05-11T02:47:57.484Z,13.01
2023-05-11T02:51:02.222Z,13.06
2023-05-11T02:54:07.481Z,13.07
2023-05-11T02:57:10.375Z,13.09
2023-05-11T03:00:13.826Z,13.09
2023-05-11T03:03:17.913Z,13.07
2023-05-11T03:06:20.598Z,13.06
2023-05-11T03:09:23.358Z,13.02
2023-05-11T03:12:31.438Z,13.02
2023-05-11T03:15:34.910Z,13.02
2023-05-11T03:18:39.902Z,13.00
2023-05-11T03:21:42.918Z,12.95
2023-05-11T03:24:45.885Z,12.89
2023-05-11T03:27:51.620Z,12.89
2023-05-11T03:30:55.227Z,12.89
2023-05-11T03:33:59.688Z,12.89
2023-05-11T03:37:03.347Z,12.89
2023-05-11T03:40:09.709Z,12.90
2023-05-11T03:43:15.987Z,12.84
2023-05-11T03:46:21.734Z,12.86
2023-05-11T03:49:26.958Z,12.87
2023-05-11T03:52:31.135Z,12.84
2023-05-11T03:55:33.964Z,12.87
2023-05-11T03:58:40.155Z,12.87
2023-05-11T04:01:43.429Z,12.92
2023-05-11T04:04:47.403Z,12.87
2023-05-11T04:07:51.814Z,12.86
2023-05-11T04:10:54.436Z,12.87
2023-05-11T04:13:57.340Z,12.88
2023-05-11T04:17:00.586Z,12.93
2023-05-11T04:20:04.856Z,12.94
2023-05-11T04:23:09.049Z,13.01
2023-05-11T04:26:12.995Z,12.99
2023-05-11T04:29:15.613Z,13.00
2023-05-11T04:32:18.207Z,12.98
2023-05-11T04:35:23.591Z,13.00
2023-05-11T04:38:26.311Z,13.01
2023-05-11T04:41:28.997Z,12.99
2023-05-11T04:44:31.601Z,13.06
2023-05-11T04:47:34.281Z,13.04
2023-05-11T04:50:39.264Z,13.05
2023-05-11T04:53:42.511Z,13.07
2023-05-11T04:56:45.324Z,13.09
2023-05-11T04:59:47.984Z,13.13
2023-05-11T05:02:51.776Z,13.11
2023-05-11T05:05:55.814Z,13.05
2023-05-11T05:08:58.463Z,13.06
2023-05-11T05:12:01.657Z,13.08
2023-05-11T05:15:05.599Z,13.10
2023-05-11T05:18:08.316Z,13.11
2023-05-11T05:21:12.281Z,13.16
2023-05-11T05:24:14.912Z,13.12
2023-05-11T05:27:17.540Z,13.08
2023-05-11T05:30:20.728Z,13.07
2023-05-11T05:33:23.558Z,13.08
2023-05-11T05:36:27.622Z,13.10
2023-05-11T05:39:30.396Z,13.14
2023-05-11T05:42:33.011Z,13.16
2023-05-11T05:45:35.619Z,13.18
2023-05-11T05:48:38.239Z,13.23
2023-05-11T05:51:42.269Z,13.25
2023-05-11T05:54:44.966Z,13.23
2023-05-11T05:57:47.581Z,13.29
2023-05-11T06:00:50.434Z,13.31
2023-05-11T06:03:53.442Z,13.29
2023-05-11T06:06:57.865Z,13.30
2023-05-11T06:10:00.978Z,13.35
2023-05-11T06:13:03.613Z,13.37
2023-05-11T06:16:06.610Z,13.36
2023-05-11T06:19:09.602Z,13.35
2023-05-11T06:22:13.596Z,13.40
2023-05-11T06:25:16.359Z,13.42
2023-05-11T06:28:18.987Z,13.44
2023-05-11T06:31:23.204Z,13.42
2023-05-11T06:34:26.034Z,13.45
2023-05-11T06:37:31.412Z,13.50
2023-05-11T06:40:34.156Z,13.53
2023-05-11T06:43:36.772Z,13.56
2023-05-11T06:46:40.821Z,13.53
2023-05-11T06:49:43.773Z,13.52
2023-05-11T06:52:47.875Z,13.51
2023-05-11T06:55:50.614Z,13.53
2023-05-11T06:58:53.315Z,13.54
2023-05-11T07:01:56.105Z,13.55
2023-05-11T07:04:59.434Z,13.51
2023-05-11T07:08:04.775Z,13.51
2023-05-11T07:11:07.763Z,13.57
2023-05-11T07:14:10.449Z,13.63
2023-05-11T07:17:13.227Z,13.63
2023-05-11T07:20:16.653Z,13.67
2023-05-11T07:23:20.812Z,13.71
2023-05-11T07:26:23.544Z,13.71
2023-05-11T07:29:26.224Z,13.74
2023-05-11T07:32:29.006Z,13.69
2023-05-11T07:35:31.946Z,13.68
2023-05-11T07:38:36.375Z,13.73
2023-05-11T07:41:39.363Z,13.77
2023-05-11T07:44:42.363Z,13.79
2023-05-11T07:47:45.369Z,13.80
2023-05-11T07:50:49.533Z,13.78
2023-05-11T07:53:53.706Z,13.83
2023-05-11T07:56:56.428Z,13.90
2023-05-11T07:59:59.135Z,13.93
2023-05-11T08:03:02.069Z,13.96
2023-05-11T08:06:05.520Z,14.03
2023-05-11T08:09:09.731Z,14.05
2023-05-11T08:12:12.602Z,14.04
2023-05-11T08:15:15.418Z,14.04
2023-05-11T08:18:18.265Z,14.03
2023-05-11T08:21:21.153Z,14.08
2023-05-11T08:24:25.256Z,14.15
2023-05-11T08:27:27.932Z,14.14
2023-05-11T08:30:30.685Z,14.18
2023-05-11T08:33:38.324Z,14.18
2023-05-11T08:36:41.603Z,14.16
2023-05-11T08:39:47.928Z,14.17
2023-05-11T08:42:56.042Z,14.16
2023-05-11T08:46:03.809Z,14.17
2023-05-11T08:49:08.205Z,14.21
2023-05-11T08:52:12.648Z,14.17
2023-05-11T08:55:17.371Z,14.18
2023-05-11T08:58:22.292Z,14.20
2023-05-11T09:01:25.930Z,14.16
2023-05-11T09:04:29.646Z,14.21
2023-05-11T09:07:35.652Z,14.26
2023-05-11T09:10:40.248Z,14.29
2023-05-11T09:13:43.226Z,14.27
2023-05-11T09:16:47.107Z,14.28
2023-05-11T09:20:00.898Z,14.31
2023-05-11T09:23:03.747Z,14.33
2023-05-11T09:26:15.059Z,14.35
2023-05-11T09:29:21.231Z,14.35
2023-05-11T09:32:24.200Z,14.38
2023-05-11T09:35:28.728Z,14.39
2023-05-11T09:38:32.231Z,14.40
2023-05-11T09:41:38.490Z,14.38
2023-05-11T09:44:42.428Z,14.37
2023-05-11T09:47:46.393Z,14.35
2023-05-11T09:50:52.982Z,14.42
2023-05-11T09:53:55.984Z,14.44
2023-05-11T09:57:00.376Z,14.42
2023-05-11T10:00:05.124Z,14.45
2023-05-11T10:03:09.383Z,14.42
2023-05-11T10:06:12.354Z,14.49
2023-05-11T10:09:17.651Z,14.55
2023-05-11T10:12:23.482Z,14.56
2023-05-11T10:15:28.558Z,14.53
2023-05-11T10:18:32.720Z,14.55
2023-05-11T10:21:36.373Z,14.56
2023-05-11T10:24:39.983Z,14.54
2023-05-11T10:27:44.352Z,14.61
2023-05-11T10:30:47.342Z,14.60
2023-05-11T10:33:51.589Z,14.58
2023-05-11T10:36:56.173Z,14.60
2023-05-11T10:39:59.267Z,14.61
2023-05-11T10:43:37.325Z,14.65
2023-05-11T10:46:55.424Z,14.59
2023-05-11T10:50:22.535Z,14.53
2023-05-11T10:53:50.174Z,14.55
2023-05-11T10:57:13.311Z,14.64
2023-05-11T11:00:52.307Z,14.63
2023-05-11T11:03:59.597Z,14.65
2023-05-11T11:07:07.794Z,14.67
2023-05-11T11:10:13.044Z,14.69
2023-05-11T11:13:17.381Z,14.78
2023-05-11T11:16:23.691Z,14.84
2023-05-11T11:19:42.399Z,14.84
2023-05-11T11:22:47.494Z,14.83
2023-05-11T11:25:55.055Z,14.81
2023-05-11T11:29:13.045Z,14.84
2023-05-11T11:32:29.480Z,14.91
2023-05-11T11:35:47.304Z,15.00
2023-05-11T11:39:09.027Z,15.07
2023-05-11T11:42:13.503Z,15.03
2023-05-11T11:45:33.489Z,15.03
2023-05-11T11:48:40.429Z,15.05
2023-05-11T11:51:43.362Z,15.08
2023-05-11T11:54:46.994Z,15.14
2023-05-11T11:57:51.376Z,15.18
2023-05-11T12:00:54.417Z,15.28
2023-05-11T12:04:24.546Z,15.34
2023-05-11T12:07:31.651Z,15.38
2023-05-11T12:10:34.766Z,15.45
2023-05-11T12:13:37.951Z,15.40
2023-05-11T12:16:40.801Z,15.49
2023-05-11T12:19:45.721Z,15.51
2023-05-11T12:22:49.466Z,15.48
2023-05-11T12:26:02.150Z,15.48
2023-05-11T12:29:09.780Z,15.46
2023-05-11T12:32:14.083Z,15.55
2023-05-11T12:35:24.919Z,15.58
2023-05-11T12:38:27.658Z,15.57
2023-05-11T12:41:30.400Z,15.53
2023-05-11T12:44:33.747Z,15.55
2023-05-11T12:47:36.735Z,15.60
2023-05-11T12:50:43.166Z,15.61
2023-05-11T12:53:45.868Z,15.68
2023-05-11T12:56:49.500Z,15.70
2023-05-11T13:00:11.303Z,15.76
2023-05-11T13:03:14.089Z,15.81
2023-05-11T13:06:21.614Z,15.80
2023-05-11T13:09:25.583Z,15.85
2023-05-11T13:12:31.929Z,15.81
2023-05-11T13:15:35.507Z,15.78
2023-05-11T13:18:38.511Z,15.81
2023-05-11T13:21:47.725Z,15.85
2023-05-11T13:24:51.054Z,15.88
2023-05-11T13:27:55.797Z,15.95
2023-05-11T13:31:02.557Z,15.94
2023-05-11T13:34:05.604Z,15.96
2023-05-11T13:37:09.754Z,16.01
2023-05-11T13:40:14.023Z,16.10
2023-05-11T13:43:17.001Z,16.13
2023-05-11T13:46:19.955Z,16.14
2023-05-11T13:49:22.778Z,16.17
2023-05-11T13:52:26.901Z,16.10
2023-05-11T13:55:29.862Z,16.03
2023-05-11T13:58:32.552Z,15.97
2023-05-11T14:01:35.282Z,15.83
2023-05-11T14:04:39.221Z,15.74
2023-05-11T14:07:48.261Z,15.81
2023-05-11T14:10:52.580Z,15.96
2023-05-11T14:13:55.268Z,16.12
2023-05-11T14:16:58.098Z,16.25
2023-05-11T14:20:00.798Z,16.40
2023-05-11T14:23:05.092Z,16.38
2023-05-11T14:26:07.863Z,16.42
2023-05-11T14:29:10.640Z,16.36
2023-05-11T14:32:13.848Z,16.34
2023-05-11T14:35:16.856Z,16.35
2023-05-11T14:38:21.172Z,16.43
2023-05-11T14:41:23.906Z,16.34
2023-05-11T14:44:26.639Z,16.40
2023-05-11T14:47:29.390Z,16.35
2023-05-11T14:50:32.466Z,16.43
2023-05-11T14:53:36.541Z,16.45
2023-05-11T14:56:39.234Z,16.43
2023-05-11T14:59:55.455Z,16.48
2023-05-11T15:03:02.055Z,16.53
2023-05-11T15:06:05.034Z,16.55
2023-05-11T15:09:09.146Z,16.61
2023-05-11T15:12:11.848Z,16.62
2023-05-11T15:15:14.537Z,16.63
2023-05-11T15:18:17.265Z,16.58
2023-05-11T15:21:20.073Z,16.53
2023-05-11T15:24:24.244Z,16.50
2023-05-11T15:27:27.002Z,16.40
2023-05-11T15:30:31.511Z,16.37
2023-05-11T15:33:35.420Z,16.34
2023-05-11T15:36:38.228Z,16.32
2023-05-11T15:39:42.585Z,16.26
2023-05-11T15:42:45.382Z,16.20
2023-05-11T15:45:48.108Z,16.17
2023-05-11T15:48:51.632Z,16.19
2023-05-11T15:51:54.431Z,16.16
2023-05-11T15:54:58.431Z,16.15
2023-05-11T15:58:01.147Z,15.94
2023-05-11T16:01:04.033Z,15.86
2023-05-11T16:04:06.866Z,15.94
2023-05-11T16:07:09.670Z,15.90
2023-05-11T16:10:13.787Z,15.92
2023-05-11T16:13:16.669Z,15.87
2023-05-11T16:16:19.517Z,15.84
2023-05-11T16:19:22.269Z,15.82
2023-05-11T16:22:25.100Z,15.81
2023-05-11T16:25:29.232Z,15.78
2023-05-11T16:28:33.168Z,15.76
2023-05-11T16:31:36.059Z,15.74
2023-05-11T16:34:38.867Z,15.60
2023-05-11T16:37:42.549Z,15.50
2023-05-11T16:40:46.870Z,15.46
2023-05-11T16:43:50.157Z,15.44
2023-05-11T16:46:53.409Z,15.41
2023-05-11T16:49:56.152Z,15.37
2023-05-11T16:52:58.876Z,15.35
2023-05-11T16:56:03.059Z,15.30
2023-05-11T16:59:05.833Z,15.32
2023-05-11T17:02:08.820Z,15.25
2023-05-11T17:05:12.450Z,15.22
2023-05-11T17:08:15.337Z,15.16
2023-05-11T17:11:19.761Z,15.09
2023-05-11T17:14:22.596Z,15.08
2023-05-11T17:17:25.388Z,15.03
2023-05-11T17:20:28.277Z,14.98
2023-05-11T17:23:31.464Z,15.03
2023-05-11T17:26:47.259Z,15.01
2023-05-11T17:29:50.853Z,14.98
2023-05-11T17:32:53.870Z,15.02
2023-05-11T17:35:56.963Z,15.02
2023-05-11T17:38:59.644Z,15.05
2023-05-11T17:42:03.755Z,14.97
2023-05-11T17:45:07.860Z,14.78
2023-05-11T17:48:10.567Z,14.64
2023-05-11T17:51:14.208Z,14.61
2023-05-11T17:54:16.868Z,14.61
2023-05-11T17:57:23.319Z,14.64
2023-05-11T18:00:27.485Z,14.66
2023-05-11T18:03:30.483Z,14.62
2023-05-11T18:06:34.530Z,14.61
2023-05-11T18:09:37.232Z,14.64
2023-05-11T18:12:41.333Z,14.68
2023-05-11T18:15:44.214Z,14.64
2023-05-11T18:18:46.980Z,14.58
2023-05-11T18:21:51.403Z,14.56
2023-05-11T18:24:54.872Z,14.55
2023-05-11T18:27:59.798Z,14.55
2023-05-11T18:31:02.592Z,14.48
2023-05-11T18:34:05.805Z,14.44
2023-05-11T18:37:08.989Z,14.38
2023-05-11T18:40:12.525Z,14.34
2023-05-11T18:43:16.567Z,14.29
2023-05-11T18:46:20.283Z,14.26
2023-05-11T18:49:23.243Z,14.24
2023-05-11T18:52:26.100Z,14.14
2023-05-11T18:55:30.916Z,14.08
2023-05-11T18:58:35.499Z,14.04
2023-05-11T19:01:47.631Z,13.97
2023-05-11T19:04:51.241Z,13.89
2023-05-11T19:07:53.941Z,13.87
2023-05-11T19:10:56.709Z,13.79
2023-05-11T19:14:01.560Z,13.79
2023-05-11T19:17:05.188Z,13.73
2023-05-11T19:20:09.457Z,13.74
2023-05-11T19:23:12.209Z,13.74
2023-05-11T19:26:15.032Z,13.77
2023-05-11T19:29:21.777Z,13.78
2023-05-11T19:32:24.857Z,13.75
2023-05-11T19:35:28.272Z,13.80
2023-05-11T19:38:31.277Z,13.82
2023-05-11T19:41:34.798Z,13.81
2023-05-11T19:44:43.427Z,13.80
2023-05-11T19:47:46.209Z,13.82
2023-05-11T19:50:49.068Z,13.82
2023-05-11T19:53:51.754Z,13.80
2023-05-11T19:56:57.605Z,13.75
2023-05-11T20:00:02.903Z,13.72
2023-05-11T20:03:05.690Z,13.70
2023-05-11T20:06:08.529Z,13.69
2023-05-11T20:09:11.803Z,13.66
2023-05-11T20:12:14.476Z,13.65
2023-05-11T20:15:18.868Z,13.64
2023-05-11T20:18:21.638Z,13.55
2023-05-11T20:21:24.292Z,13.56
2023-05-11T20:24:27.439Z,13.52
2023-05-11T20:27:30.109Z,13.49
2023-05-11T20:30:34.374Z,13.42
2023-05-11T20:36:43.042Z,13.30
2023-05-11T20:39:46.226Z,13.24
2023-05-11T20:42:48.983Z,13.14
2023-05-11T20:45:53.948Z,13.09
2023-05-11T20:48:57.662Z,13.10
2023-05-11T20:52:00.617Z,13.07
2023-05-11T20:55:04.534Z,13.08
2023-05-11T20:58:07.759Z,13.07
2023-05-11T21:01:12.089Z,13.07
2023-05-11T21:04:14.819Z,13.11
2023-05-11T21:07:17.587Z,13.11
2023-05-11T21:10:20.521Z,13.13
2023-05-11T21:13:23.546Z,13.12
2023-05-11T21:16:27.766Z,13.13
2023-05-11T21:19:30.454Z,13.12
2023-05-11T21:22:34.037Z,13.10
2023-05-11T21:25:36.973Z,13.05
2023-05-11T21:28:40.639Z,13.07
2023-05-11T21:31:44.927Z,13.02
2023-05-11T21:34:47.624Z,13.04
2023-05-11T21:37:50.575Z,12.98
2023-05-11T21:40:53.719Z,12.95
2023-05-11T21:43:56.415Z,12.92
2023-05-11T21:47:00.769Z,12.93
2023-05-11T21:50:03.481Z,12.91
2023-05-11T21:53:06.269Z,12.87
2023-05-11T21:56:09.809Z,12.86
2023-05-11T21:59:12.502Z,12.88
2023-05-11T22:02:16.659Z,12.91
2023-05-11T22:05:19.883Z,12.91
2023-05-11T22:08:22.653Z,12.92
2023-05-11T22:11:25.716Z,12.90
2023-05-11T22:14:28.562Z,12.87
2023-05-11T22:17:32.621Z,12.85
2023-05-11T22:20:35.263Z,12.86
2023-05-11T22:23:37.881Z,12.85
2023-05-11T22:26:40.614Z,12.83
2023-05-11T22:29:43.566Z,12.84
2023-05-11T22:32:47.565Z,12.84
2023-05-11T22:35:50.197Z,12.89
2023-05-11T22:38:53.039Z,12.89
2023-05-11T22:41:55.672Z,12.91
2023-05-11T22:44:58.389Z,12.90
2023-05-11T22:48:02.711Z,12.93
2023-05-11T22:51:06.301Z,12.89
2023-05-11T22:54:08.972Z,12.92
2023-05-11T22:57:14.705Z,12.92
2023-05-11T23:00:18.036Z,12.86
2023-05-11T23:03:22.396Z,12.86
2023-05-11T23:06:25.350Z,12.86
2023-05-11T23:09:28.344Z,12.88
2023-05-11T23:12:31.065Z,12.85
2023-05-11T23:15:33.752Z,12.85
2023-05-11T23:18:37.918Z,12.81
2023-05-11T23:21:40.665Z,12.85
2023-05-11T23:24:43.330Z,12.82
2023-05-11T23:27:45.902Z,12.82
2023-05-11T23:30:48.802Z,12.80
2023-05-11T23:33:52.780Z,12.77
2023-05-11T23:36:55.469Z,12.76
2023-05-11T23:39:58.042Z,12.74
2023-05-11T23:43:00.867Z,12.75
2023-05-11T23:46:03.547Z,12.77
2023-05-11T23:49:07.678Z,12.77
2023-05-11T23:52:10.482Z,12.78
2023-05-11T23:55:13.354Z,12.74
2023-05-11T23:58:16.008Z,12.75
